createdAt,value
2018-03-25T00:00:24.252Z,99.90
2018-03-25T00:02:51.710Z,99.90
2018-03-25T00:05:19.213Z,99.90
2018-03-25T00:07:47.511Z,99.90
2018-03-25T00:10:14.980Z,99.90
2018-03-25T00:12:42.491Z,99.90
2018-03-25T00:15:10.763Z,99.90
2018-03-25T00:17:39.016Z,99.90
2018-03-25T00:20:06.477Z,99.90
2018-03-25T00:22:33.981Z,99.90
2018-03-25T00:25:01.630Z,99.90
2018-03-25T00:27:29.912Z,99.90
2018-03-25T00:29:58.161Z,99.90
2018-03-25T00:32:25.648Z,99.90
2018-03-25T00:34:53.888Z,99.90
2018-03-25T00:37:21.370Z,99.90
2018-03-25T00:39:48.842Z,99.90
2018-03-25T00:42:17.108Z,99.90
2018-03-25T00:44:45.360Z,99.90
2018-03-25T00:47:12.865Z,99.90
2018-03-25T00:49:40.368Z,99.90
2018-03-25T00:52:07.914Z,99.90
2018-03-25T00:54:35.402Z,99.90
2018-03-25T00:57:02.882Z,99.90
2018-03-25T00:59:31.134Z,99.90
2018-03-25T01:01:58.599Z,99.90
2018-03-25T01:04:26.091Z,99.90
2018-03-25T01:06:53.614Z,99.90
2018-03-25T01:09:21.139Z,99.90
2018-03-25T01:11:48.622Z,99.90
2018-03-25T01:14:16.094Z,99.90
2018-03-25T01:16:43.578Z,99.90
2018-03-25T01:19:11.831Z,99.90
2018-03-25T01:21:39.332Z,99.90
2018-03-25T01:24:06.811Z,99.90
2018-03-25T01:26:34.301Z,99.90
2018-03-25T01:29:01.786Z,99.90
2018-03-25T01:31:30.046Z,99.90
2018-03-25T01:33:57.564Z,99.90
2018-03-25T01:36:25.054Z,99.90
2018-03-25T01:38:52.540Z,99.90
2018-03-25T01:41:20.795Z,99.90
2018-03-25T01:43:48.278Z,99.90
2018-03-25T01:46:16.531Z,99.90
2018-03-25T01:48:44.027Z,99.90
2018-03-25T01:51:11.511Z,99.90
2018-03-25T01:53:39.015Z,99.90
2018-03-25T01:56:06.505Z,99.90
2018-03-25T01:58:33.993Z,99.90
2018-03-25T02:01:01.466Z,99.90
2018-03-25T02:03:28.969Z,99.90
2018-03-25T02:05:57.249Z,99.90
2018-03-25T02:08:25.511Z,99.90
2018-03-25T02:10:53.751Z,99.90
2018-03-25T02:13:21.246Z,99.90
2018-03-25T02:15:49.487Z,99.90
2018-03-25T02:18:16.990Z,99.90
2018-03-25T02:20:45.240Z,99.90
2018-03-25T02:23:12.724Z,99.90
2018-03-25T02:25:40.576Z,99.90
2018-03-25T02:28:08.080Z,99.90
2018-03-25T02:30:35.607Z,99.90
2018-03-25T02:33:03.881Z,99.90
2018-03-25T02:35:32.135Z,99.90
2018-03-25T02:37:59.615Z,99.90
2018-03-25T02:40:27.873Z,99.90
2018-03-25T02:42:55.345Z,99.90
2018-03-25T02:45:23.716Z,99.90
2018-03-25T02:47:51.184Z,99.90
2018-03-25T02:50:19.495Z,99.90
2018-03-25T02:52:46.984Z,99.90
2018-03-25T02:55:14.475Z,99.90
2018-03-25T02:57:42.722Z,99.90
2018-03-25T03:00:10.202Z,99.90
2018-03-25T03:02:37.715Z,99.90
2018-03-25T03:05:05.201Z,99.90
2018-03-25T03:07:32.683Z,99.90
2018-03-25T03:10:00.174Z,99.90
2018-03-25T03:12:27.664Z,99.90
2018-03-25T03:14:55.152Z,99.90
2018-03-25T03:17:22.679Z,99.90
2018-03-25T03:19:50.167Z,99.90
2018-03-25T03:22:18.444Z,99.90
2018-03-25T03:24:45.940Z,99.90
2018-03-25T03:27:13.423Z,99.90
2018-03-25T03:29:40.982Z,99.90
2018-03-25T03:32:08.482Z,99.90
2018-03-25T03:34:35.983Z,99.90
2018-03-25T03:37:03.562Z,99.90
2018-03-25T03:39:31.052Z,99.90
2018-03-25T03:41:58.559Z,99.90
2018-03-25T03:44:26.036Z,99.90
2018-03-25T03:46:53.530Z,99.90
2018-03-25T03:49:21.782Z,99.90
2018-03-25T03:51:49.262Z,99.90
2018-03-25T03:54:16.770Z,99.90
2018-03-25T03:56:44.250Z,99.90
2018-03-25T03:59:11.759Z,99.90
2018-03-25T04:01:39.247Z,99.90
2018-03-25T04:04:06.742Z,99.90
2018-03-25T04:06:34.218Z,99.90
2018-03-25T04:09:01.724Z,99.90
2018-03-25T04:11:29.966Z,99.90
2018-03-25T04:13:57.455Z,99.90
2018-03-25T04:16:24.931Z,99.90
2018-03-25T04:18:52.422Z,99.90
2018-03-25T04:21:19.899Z,99.90
2018-03-25T04:23:47.408Z,99.90
2018-03-25T04:26:14.905Z,99.90
2018-03-25T04:28:42.444Z,99.90
2018-03-25T04:31:09.926Z,99.90
2018-03-25T04:33:37.422Z,99.90
2018-03-25T04:36:05.672Z,99.90
2018-03-25T04:38:33.162Z,99.90
2018-03-25T04:41:00.677Z,99.90
2018-03-25T04:43:28.168Z,99.90
2018-03-25T04:45:56.438Z,99.90
2018-03-25T04:48:24.711Z,99.90
2018-03-25T04:50:52.962Z,99.90
2018-03-25T04:53:20.443Z,99.90
2018-03-25T04:55:47.930Z,99.90
2018-03-25T04:58:15.407Z,99.90
2018-03-25T05:00:42.884Z,99.90
2018-03-25T05:03:10.359Z,99.90
2018-03-25T05:05:37.883Z,99.90
2018-03-25T05:08:05.427Z,99.90
2018-03-25T05:10:32.876Z,99.90
2018-03-25T05:13:01.156Z,99.90
2018-03-25T05:15:29.420Z,99.90
2018-03-25T05:17:57.667Z,99.90
2018-03-25T05:20:25.143Z,99.90
2018-03-25T05:22:52.628Z,99.90
2018-03-25T05:25:20.197Z,99.90
2018-03-25T05:27:47.691Z,99.90
2018-03-25T05:30:15.215Z,99.90
2018-03-25T05:32:42.714Z,99.90
2018-03-25T05:35:10.230Z,99.90
2018-03-25T05:37:37.719Z,99.90
2018-03-25T05:40:05.212Z,99.90
2018-03-25T05:42:32.721Z,99.90
2018-03-25T05:45:00.250Z,99.90
2018-03-25T05:47:28.490Z,99.90
2018-03-25T05:49:56.043Z,99.90
2018-03-25T05:52:23.528Z,99.90
2018-03-25T05:54:51.075Z,99.90
2018-03-25T05:57:18.594Z,99.90
2018-03-25T05:59:46.133Z,99.90
2018-03-25T06:02:13.611Z,99.90
2018-03-25T06:04:41.227Z,99.90
2018-03-25T06:07:08.774Z,99.90
2018-03-25T06:09:36.321Z,99.90
2018-03-25T06:12:03.795Z,99.90
2018-03-25T06:14:31.299Z,99.90
2018-03-25T06:16:58.803Z,99.90
2018-03-25T06:19:26.323Z,99.90
2018-03-25T06:21:53.981Z,99.90
2018-03-25T06:24:23.302Z,99.90
2018-03-25T06:26:50.924Z,99.90
2018-03-25T06:29:19.186Z,99.90
2018-03-25T06:31:46.667Z,99.90
2018-03-25T06:34:14.899Z,99.90
2018-03-25T06:36:42.373Z,99.90
2018-03-25T06:39:09.847Z,99.90
2018-03-25T06:41:38.169Z,99.90
2018-03-25T06:44:05.647Z,99.90
2018-03-25T06:46:33.292Z,99.90
2018-03-25T06:49:00.786Z,99.90
2018-03-25T06:51:28.331Z,99.90
2018-03-25T06:53:55.827Z,99.90
2018-03-25T06:56:24.136Z,99.90
2018-03-25T06:58:51.606Z,99.90
2018-03-25T07:01:19.094Z,99.90
2018-03-25T07:03:46.574Z,99.90
2018-03-25T07:06:14.823Z,99.90
2018-03-25T07:08:42.301Z,99.90
2018-03-25T07:11:09.792Z,99.90
2018-03-25T07:13:37.285Z,99.90
2018-03-25T07:16:04.773Z,99.90
2018-03-25T07:18:32.271Z,99.90
2018-03-25T07:20:59.761Z,99.90
2018-03-25T07:23:27.272Z,99.90
2018-03-25T07:25:55.652Z,99.90
2018-03-25T07:28:23.158Z,99.90
2018-03-25T07:30:50.634Z,99.90
2018-03-25T07:33:18.906Z,99.90
2018-03-25T07:35:46.375Z,99.90
2018-03-25T07:38:13.862Z,99.90
2018-03-25T07:40:42.122Z,99.90
2018-03-25T07:43:09.612Z,99.90
2018-03-25T07:45:37.104Z,99.90
2018-03-25T07:48:04.598Z,99.90
2018-03-25T07:50:32.863Z,99.90
2018-03-25T07:53:00.337Z,99.90
2018-03-25T07:55:27.884Z,99.90
2018-03-25T07:57:55.443Z,99.90
2018-03-25T08:00:22.932Z,99.90
2018-03-25T08:02:51.255Z,87.70
2018-03-25T08:05:19.043Z,86.90
2018-03-25T08:07:46.561Z,76.10
2018-03-25T08:10:14.273Z,68.20
2018-03-25T08:12:41.800Z,70.60
2018-03-25T08:15:09.449Z,63.20
2018-03-25T08:17:36.931Z,60.20
2018-03-25T08:20:04.498Z,58.00
2018-03-25T08:22:31.986Z,57.30
2018-03-25T08:25:00.478Z,50.20
2018-03-25T08:27:28.806Z,48.60
2018-03-25T08:29:56.281Z,48.40
2018-03-25T08:32:23.760Z,48.40
2018-03-25T08:34:51.303Z,48.20
2018-03-25T08:37:18.809Z,51.00
2018-03-25T08:39:46.314Z,50.10
2018-03-25T08:42:13.823Z,50.50
2018-03-25T08:44:41.378Z,49.30
2018-03-25T08:47:08.878Z,46.80
2018-03-25T08:49:36.456Z,46.40
2018-03-25T08:52:03.942Z,45.50
2018-03-25T08:54:31.424Z,44.30
2018-03-25T08:56:58.912Z,44.40
2018-03-25T08:59:26.416Z,44.00
2018-03-25T09:01:54.670Z,42.30
2018-03-25T09:04:22.137Z,41.90
2018-03-25T09:06:49.740Z,40.80
2018-03-25T09:09:17.278Z,40.70
2018-03-25T09:11:45.567Z,40.20
2018-03-25T09:14:13.103Z,40.20
2018-03-25T09:16:41.279Z,39.10
2018-03-25T09:19:08.807Z,38.80
2018-03-25T09:21:36.279Z,37.20
2018-03-25T09:24:03.751Z,37.10
2018-03-25T09:26:31.245Z,36.50
2018-03-25T09:28:58.738Z,36.60
2018-03-25T09:31:26.282Z,36.30
2018-03-25T09:33:53.786Z,37.50
2018-03-25T09:36:21.282Z,36.80
2018-03-25T09:38:49.233Z,35.30
2018-03-25T09:41:17.595Z,34.40
2018-03-25T09:43:45.141Z,34.30
2018-03-25T09:46:12.629Z,35.10
2018-03-25T09:48:42.113Z,34.50
2018-03-25T09:51:09.779Z,34.50
2018-03-25T09:53:37.271Z,34.60
2018-03-25T09:56:04.771Z,33.40
2018-03-25T09:58:32.289Z,33.60
2018-03-25T10:01:05.544Z,33.10
2018-03-25T10:03:33.023Z,33.40
2018-03-25T10:06:01.301Z,32.10
2018-03-25T10:08:29.548Z,32.60
2018-03-25T10:10:57.027Z,32.60
2018-03-25T10:13:25.308Z,32.40
2018-03-25T10:15:53.575Z,32.90
2018-03-25T10:18:21.047Z,32.80
2018-03-25T10:20:49.350Z,33.20
2018-03-25T10:23:16.824Z,33.20
2018-03-25T10:25:45.158Z,32.30
2018-03-25T10:28:13.397Z,34.10
2018-03-25T10:30:41.665Z,33.80
2018-03-25T10:33:09.134Z,33.80
2018-03-25T10:35:36.683Z,34.10
2018-03-25T10:38:04.179Z,32.40
2018-03-25T10:40:31.667Z,31.70
2018-03-25T10:43:00.023Z,32.00
2018-03-25T10:45:27.502Z,32.00
2018-03-25T10:47:55.785Z,30.70
2018-03-25T10:50:23.319Z,30.70
2018-03-25T10:52:50.827Z,31.20
2018-03-25T10:55:18.320Z,32.30
2018-03-25T10:57:45.790Z,32.10
2018-03-25T11:00:13.400Z,32.80
2018-03-25T11:02:40.875Z,33.40
2018-03-25T11:05:08.360Z,32.10
2018-03-25T11:07:35.852Z,33.90
2018-03-25T11:10:04.107Z,33.00
2018-03-25T11:12:31.602Z,33.00
2018-03-25T11:14:59.083Z,33.40
2018-03-25T11:17:26.581Z,33.80
2018-03-25T11:19:54.058Z,33.20
2018-03-25T11:22:21.572Z,34.50
2018-03-25T11:24:49.059Z,35.10
2018-03-25T11:27:16.566Z,35.70
2018-03-25T11:29:44.049Z,36.50
2018-03-25T11:32:11.554Z,36.50
2018-03-25T11:34:39.812Z,35.30
2018-03-25T11:37:07.311Z,35.20
2018-03-25T11:39:34.806Z,36.00
2018-03-25T11:42:02.310Z,36.30
2018-03-25T11:44:30.563Z,37.10
2018-03-25T11:46:58.059Z,37.10
2018-03-25T11:49:25.587Z,35.80
2018-03-25T11:51:53.088Z,34.60
2018-03-25T11:54:20.751Z,34.80
2018-03-25T11:56:48.334Z,34.00
2018-03-25T11:59:15.861Z,35.20
2018-03-25T12:01:43.349Z,35.20
2018-03-25T12:04:10.835Z,35.60
2018-03-25T12:06:38.315Z,36.00
2018-03-25T12:09:06.565Z,38.30
2018-03-25T12:11:34.059Z,38.30
2018-03-25T12:14:02.317Z,37.00
2018-03-25T12:16:29.810Z,36.90
2018-03-25T12:18:57.292Z,37.10
2018-03-25T12:21:24.835Z,37.20
2018-03-25T12:23:52.326Z,36.50
2018-03-25T12:26:20.172Z,36.50
2018-03-25T12:28:48.874Z,38.70
2018-03-25T12:31:16.683Z,38.60
2018-03-25T12:33:44.233Z,40.40
2018-03-25T12:36:11.697Z,41.40
2018-03-25T12:38:40.040Z,42.60
2018-03-25T12:41:07.499Z,41.80
2018-03-25T12:43:34.978Z,43.90
2018-03-25T12:46:02.476Z,43.50
2018-03-25T12:48:29.970Z,44.20
2018-03-25T12:50:57.447Z,45.10
2018-03-25T12:53:24.941Z,44.30
2018-03-25T12:55:53.234Z,45.80
2018-03-25T12:58:20.699Z,45.80
2018-03-25T13:00:48.239Z,46.40
2018-03-25T13:03:16.519Z,46.60
2018-03-25T13:05:44.800Z,47.40
2018-03-25T13:08:13.041Z,47.90
2018-03-25T13:10:40.535Z,47.80
2018-03-25T13:13:08.093Z,48.00
2018-03-25T13:15:36.368Z,48.40
2018-03-25T13:18:04.608Z,48.00
2018-03-25T13:20:32.086Z,48.00
2018-03-25T13:22:59.611Z,47.10
2018-03-25T13:25:27.124Z,47.90
2018-03-25T13:27:55.433Z,50.10
2018-03-25T13:30:22.895Z,50.10
2018-03-25T13:32:50.374Z,48.30
2018-03-25T13:35:17.849Z,49.60
2018-03-25T13:37:45.360Z,50.20
2018-03-25T13:40:12.907Z,50.20
2018-03-25T13:42:40.404Z,52.50
2018-03-25T13:45:07.902Z,52.20
2018-03-25T13:47:36.160Z,55.20
2018-03-25T13:50:03.631Z,55.20
2018-03-25T13:52:31.888Z,58.20
2018-03-25T13:54:59.379Z,58.10
2018-03-25T13:57:27.639Z,64.50
2018-03-25T13:59:55.104Z,64.30
2018-03-25T14:02:23.412Z,71.00
2018-03-25T14:04:50.888Z,70.20
2018-03-25T14:07:18.396Z,68.20
2018-03-25T14:09:46.668Z,66.40
2018-03-25T14:12:14.978Z,66.00
2018-03-25T14:14:42.465Z,66.00
2018-03-25T14:17:10.710Z,73.50
2018-03-25T14:19:38.248Z,72.40
2018-03-25T14:22:05.788Z,70.30
2018-03-25T14:24:33.549Z,68.50
2018-03-25T14:27:01.074Z,73.60
2018-03-25T14:29:28.555Z,77.00
2018-03-25T14:31:57.046Z,83.20
2018-03-25T14:34:25.035Z,88.80
2018-03-25T14:36:52.566Z,86.00
2018-03-25T14:39:20.101Z,87.40
2018-03-25T14:41:47.585Z,74.50
2018-03-25T14:44:15.446Z,74.80
2018-03-25T14:46:42.918Z,73.80
2018-03-25T14:49:10.460Z,74.10
2018-03-25T14:51:37.935Z,78.20
2018-03-25T14:54:05.421Z,81.00
2018-03-25T14:56:32.961Z,86.50
2018-03-25T14:59:00.570Z,90.00
2018-03-25T15:01:28.062Z,88.30
2018-03-25T15:03:55.568Z,90.40
2018-03-25T15:06:23.847Z,90.00
2018-03-25T15:08:52.090Z,90.70
2018-03-25T15:11:19.594Z,90.70
2018-03-25T15:13:47.096Z,90.70
2018-03-25T15:16:14.671Z,92.40
2018-03-25T15:18:42.143Z,92.60
2018-03-25T15:21:09.650Z,91.80
2018-03-25T15:23:37.125Z,92.60
2018-03-25T15:26:04.607Z,92.10
2018-03-25T15:28:32.073Z,91.00
2018-03-25T15:30:59.579Z,92.50
2018-03-25T15:33:27.064Z,92.90
2018-03-25T15:35:54.536Z,92.80
2018-03-25T15:38:22.031Z,94.10
2018-03-25T15:40:50.326Z,96.80
2018-03-25T15:43:17.867Z,96.80
2018-03-25T15:45:46.105Z,97.60
2018-03-25T15:48:13.629Z,97.70
2018-03-25T15:50:41.138Z,98.50
2018-03-25T15:53:08.639Z,99.90
2018-03-25T15:55:36.151Z,99.60
2018-03-25T15:58:03.632Z,99.90
2018-03-25T16:00:31.124Z,97.70
2018-03-25T16:02:58.621Z,96.50
2018-03-25T16:05:26.125Z,96.90
2018-03-25T16:07:53.610Z,96.10
2018-03-25T16:10:21.148Z,98.90
2018-03-25T16:12:48.625Z,99.90
2018-03-25T16:15:16.122Z,99.90
2018-03-25T16:17:43.675Z,99.90
2018-03-25T16:20:11.170Z,99.90
2018-03-25T16:22:39.447Z,99.90
2018-03-25T16:25:06.976Z,99.90
2018-03-25T16:27:34.489Z,99.90
2018-03-25T16:30:02.232Z,99.90
2018-03-25T16:32:29.751Z,99.90
2018-03-25T16:34:57.239Z,99.90
2018-03-25T16:37:24.723Z,99.90
2018-03-25T16:39:52.219Z,99.90
2018-03-25T16:42:19.722Z,99.90
2018-03-25T16:44:48.124Z,99.90
2018-03-25T16:47:16.703Z,99.90
2018-03-25T16:49:44.205Z,99.90
2018-03-25T16:52:11.821Z,99.90
2018-03-25T16:54:39.299Z,99.90
2018-03-25T16:57:07.795Z,99.90
2018-03-25T16:59:35.647Z,99.90
2018-03-25T17:02:03.145Z,99.90
2018-03-25T17:04:31.525Z,99.90
2018-03-25T17:06:59.121Z,99.90
2018-03-25T17:09:27.495Z,99.90
2018-03-25T17:11:54.994Z,99.90
2018-03-25T17:14:22.498Z,99.90
2018-03-25T17:16:49.992Z,99.90
2018-03-25T17:19:18.432Z,99.90
2018-03-25T17:21:45.930Z,99.90
2018-03-25T17:24:14.236Z,99.90
2018-03-25T17:26:41.745Z,99.90
2018-03-25T17:29:10.000Z,99.90
2018-03-25T17:31:37.554Z,99.90
2018-03-25T17:34:05.035Z,99.90
2018-03-25T17:36:32.616Z,99.90
2018-03-25T17:39:00.916Z,99.90
2018-03-25T17:41:28.403Z,99.90
2018-03-25T17:43:56.012Z,99.90
2018-03-25T17:46:24.355Z,99.90
2018-03-25T17:48:51.915Z,99.90
2018-03-25T17:51:19.398Z,99.90
2018-03-25T17:53:46.899Z,99.90
2018-03-25T17:56:14.408Z,99.90
2018-03-25T17:58:41.938Z,99.90
2018-03-25T18:01:09.502Z,99.90
2018-03-25T18:03:36.990Z,99.90
2018-03-25T18:06:04.492Z,99.90
2018-03-25T18:08:31.984Z,99.90
2018-03-25T18:10:59.479Z,99.90
2018-03-25T18:13:27.753Z,99.90
2018-03-25T18:15:55.298Z,99.90
2018-03-25T18:18:22.848Z,99.90
2018-03-25T18:20:56.307Z,99.90
2018-03-25T18:23:18.647Z,99.90
2018-03-25T18:25:46.210Z,99.90
2018-03-25T18:28:13.709Z,99.90
2018-03-25T18:30:41.199Z,99.90
2018-03-25T18:33:09.450Z,99.90
2018-03-25T18:35:36.988Z,99.90
2018-03-25T18:38:04.493Z,99.90
2018-03-25T18:40:32.752Z,99.90
2018-03-25T18:43:00.285Z,99.90
2018-03-25T18:45:27.903Z,99.90
2018-03-25T18:47:56.275Z,99.90
2018-03-25T18:50:23.865Z,99.90
2018-03-25T18:52:51.451Z,99.90
2018-03-25T18:55:19.109Z,99.90
2018-03-25T18:57:47.392Z,99.90
2018-03-25T19:00:14.922Z,99.90
2018-03-25T19:02:42.592Z,99.90
2018-03-25T19:05:10.075Z,99.90
2018-03-25T19:07:37.606Z,99.90
2018-03-25T19:10:05.096Z,99.90
2018-03-25T19:12:32.622Z,99.90
2018-03-25T19:15:00.162Z,99.90
2018-03-25T19:17:28.407Z,99.90
2018-03-25T19:19:56.003Z,99.90
2018-03-25T19:22:23.478Z,99.90
2018-03-25T19:24:51.188Z,99.90
2018-03-25T19:27:18.783Z,99.90
2018-03-25T19:29:47.056Z,99.90
2018-03-25T19:32:15.584Z,99.90
2018-03-25T19:34:43.052Z,99.90
2018-03-25T19:37:10.553Z,99.90
2018-03-25T19:39:38.910Z,99.90
2018-03-25T19:42:06.446Z,99.90
2018-03-25T19:44:34.886Z,99.90
2018-03-25T19:47:03.206Z,99.90
2018-03-25T19:49:30.924Z,99.90
2018-03-25T19:51:58.579Z,99.90
2018-03-25T19:54:26.908Z,99.90
2018-03-25T19:56:54.426Z,99.90
2018-03-25T19:59:22.028Z,99.90
2018-03-25T20:01:49.572Z,99.90
2018-03-25T20:04:17.049Z,99.90
2018-03-25T20:06:44.996Z,99.90
2018-03-25T20:09:12.521Z,99.90
2018-03-25T20:11:40.790Z,99.90
2018-03-25T20:14:08.280Z,99.90
2018-03-25T20:16:36.540Z,99.90
2018-03-25T20:19:04.999Z,99.90
2018-03-25T20:21:32.463Z,99.90
2018-03-25T20:24:00.079Z,99.90
2018-03-25T20:26:27.729Z,99.90
2018-03-25T20:28:55.219Z,99.90
2018-03-25T20:31:22.740Z,99.90
2018-03-25T20:33:50.228Z,99.90
2018-03-25T20:36:17.742Z,99.90
2018-03-25T20:38:46.031Z,99.90
2018-03-25T20:41:14.362Z,99.90
2018-03-25T20:43:41.918Z,99.90
2018-03-25T20:46:09.392Z,99.90
2018-03-25T20:48:36.904Z,99.90
2018-03-25T20:51:04.466Z,99.90
2018-03-25T20:53:31.938Z,99.90
2018-03-25T20:55:59.534Z,99.90
2018-03-25T20:58:27.873Z,99.90
2018-03-25T21:00:55.360Z,99.90
2018-03-25T21:03:22.991Z,99.90
2018-03-25T21:05:50.515Z,99.90
2018-03-25T21:08:18.751Z,99.90
2018-03-25T21:10:46.254Z,99.90
2018-03-25T21:13:14.496Z,99.90
2018-03-25T21:15:41.980Z,99.90
2018-03-25T21:18:10.226Z,99.90
2018-03-25T21:20:37.694Z,99.90
2018-03-25T21:23:05.220Z,99.90
2018-03-25T21:25:32.774Z,99.90
2018-03-25T21:28:04.095Z,99.90
2018-03-25T21:30:31.639Z,99.90
2018-03-25T21:32:59.196Z,99.90
2018-03-25T21:35:26.830Z,99.90
2018-03-25T21:37:54.370Z,99.90
2018-03-25T21:40:21.837Z,99.90
2018-03-25T21:42:49.326Z,99.90
2018-03-25T21:45:16.922Z,99.90
2018-03-25T21:47:45.250Z,99.90
2018-03-25T21:50:12.829Z,99.90
2018-03-25T21:52:40.363Z,99.90
2018-03-25T21:55:07.900Z,99.90
2018-03-25T21:57:35.388Z,99.90
2018-03-25T22:00:02.896Z,99.90
2018-03-25T22:02:30.383Z,99.90
2018-03-25T22:04:57.909Z,99.90
2018-03-25T22:07:26.174Z,99.90
2018-03-25T22:09:53.672Z,99.90
2018-03-25T22:12:21.143Z,99.90
2018-03-25T22:14:48.608Z,99.90
2018-03-25T22:17:16.073Z,99.90
2018-03-25T22:19:43.556Z,99.90
2018-03-25T22:22:11.195Z,99.90
2018-03-25T22:24:38.666Z,99.90
2018-03-25T22:27:06.134Z,99.90
2018-03-25T22:29:33.716Z,99.90
2018-03-25T22:32:01.178Z,99.90
2018-03-25T22:34:28.640Z,99.90
2018-03-25T22:36:56.145Z,99.90
2018-03-25T22:39:23.659Z,99.90
2018-03-25T22:41:51.135Z,99.90
2018-03-25T22:44:18.649Z,99.90
2018-03-25T22:46:46.239Z,99.90
2018-03-25T22:49:13.716Z,99.90
2018-03-25T22:51:41.209Z,99.90
2018-03-25T22:54:08.707Z,99.90
2018-03-25T22:56:36.200Z,99.90
2018-03-25T22:59:03.682Z,99.90
2018-03-25T23:01:31.937Z,99.90
2018-03-25T23:03:59.415Z,99.90
2018-03-25T23:06:27.006Z,99.90
2018-03-25T23:08:54.483Z,99.90
2018-03-25T23:11:21.969Z,99.90
2018-03-25T23:13:49.433Z,99.90
2018-03-25T23:16:16.939Z,99.90
2018-03-25T23:18:44.447Z,99.90
2018-03-25T23:21:11.937Z,99.90
2018-03-25T23:23:39.453Z,99.90
2018-03-25T23:26:06.946Z,99.90
2018-03-25T23:28:34.435Z,99.90
2018-03-25T23:31:02.729Z,99.90
2018-03-25T23:33:30.973Z,99.90
2018-03-25T23:35:58.544Z,99.90
2018-03-25T23:38:26.818Z,99.90
2018-03-25T23:40:55.146Z,99.90
2018-03-25T23:43:23.423Z,99.90
2018-03-25T23:45:50.926Z,99.90
2018-03-25T23:48:18.427Z,99.90
2018-03-25T23:50:45.922Z,99.90
2018-03-25T23:53:13.402Z,99.90
2018-03-25T23:55:40.874Z,99.90
2018-03-25T23:58:08.434Z,99.90
